Bookmark and Share
Track history (hours):
 

Budapest Bridge

Last reported at 2014-Apr-13 21:27 UTC. Time now 2014-Apr-23 15:22 UTC.
Position S 35°06' E 021°51'.
Warning: this ship's position is 9 days out of date.

Length 268 m; draft 11.9 m.

Type: Cargo ship. MMSI: 477434200.

NotesDate/timePositionNaut miles runAvg speedWind from/ knotsBaromVisibWave heightAir tempDewpointWater temp
2014-Apr-13 21:27S 35°06' E 021°51'2512.9
2014-Apr-13 19:30S 35°08' E 021°20'1213.0
2014-Apr-13 18:33S 35°09' E 021°06'1412.8
2014-Apr-13 17:29S 35°10' E 020°49'7212.0
2014-Apr-13 11:29S 34°58' E 019°22'1212.6
2014-Apr-13 10:33S 34°52' E 019°09'1312.6
2014-Apr-13 09:33S 34°45' E 018°57'1312.9
2014-Apr-13 08:32S 34°37' E 018°43'1313.0
2014-Apr-13 07:33S 34°31' E 018°30'1512.5
2014-Apr-13 06:19S 34°21' E 018°15'1012.9
2014-Apr-13 05:33S 34°11' E 018°14'1512.7
2014-Apr-13 04:24S 33°57' E 018°15'911.1
2014-Apr-13 03:33S 33°51' E 018°24'4 3.9
2014-Apr-13 02:32S 33°55' E 018°27'0 0.0
2014-Apr-13 01:32S 33°55' E 018°27'0 0.0
2014-Apr-13 00:32S 33°55' E 018°27'0 0.0
2014-Apr-12 23:32S 33°55' E 018°27'0 0.0
2014-Apr-12 22:32S 33°55' E 018°27'0 0.0
2014-Apr-12 21:32S 33°55' E 018°27'0 0.0
2014-Apr-12 20:32S 33°55' E 018°27'0 0.0
2014-Apr-12 19:32S 33°55' E 018°27'0 0.0
2014-Apr-12 18:32S 33°55' E 018°27'0 0.0
2014-Apr-12 17:32S 33°55' E 018°27'0 0.0
2014-Apr-12 16:29S 33°55' E 018°27'0 0.0
2014-Apr-12 15:32S 33°55' E 018°27'0 0.0
2014-Apr-12 14:29S 33°55' E 018°27'0 0.0
2014-Apr-12 13:32S 33°55' E 018°27'0 0.0
2014-Apr-12 12:29S 33°55' E 018°27'0 0.0
2014-Apr-12 11:32S 33°55' E 018°27'0 0.0
2014-Apr-12 10:32S 33°55' E 018°27'0 0.0
2014-Apr-12 09:29S 33°55' E 018°27'0 0.0
2014-Apr-12 08:32S 33°55' E 018°27'0 0.0
2014-Apr-12 07:29S 33°55' E 018°27'0 0.0
2014-Apr-12 06:32S 33°55' E 018°27'0 0.0
2014-Apr-12 05:32S 33°55' E 018°27'0 0.0
2014-Apr-12 04:32S 33°55' E 018°27'0 0.0
2014-Apr-12 03:32S 33°55' E 018°27'0 0.0
2014-Apr-12 02:29S 33°55' E 018°27'0 0.0
2014-Apr-12 01:29S 33°55' E 018°27'0 0.0
2014-Apr-12 00:29S 33°55' E 018°27'0 0.0
2014-Apr-11 23:32S 33°55' E 018°27'0 0.0
2014-Apr-11 22:29S 33°55' E 018°27'0 0.0
2014-Apr-11 21:32S 33°55' E 018°27'0 0.0
2014-Apr-11 20:32S 33°55' E 018°27'0 0.0
2014-Apr-11 19:32S 33°55' E 018°27'1 1.4
2014-Apr-11 18:33S 33°54' E 018°26'14 7.2
2014-Apr-11 16:33S 34°04' E 018°14'7 7.0
2014-Apr-11 15:33S 34°11' E 018°15'1717.5
2014-Apr-11 14:33S 34°27' E 018°24'1818.1
2014-Apr-11 13:33S 34°36' E 018°42'1818.0
2014-Apr-11 12:33S 34°45' E 019°01'2018.0
2014-Apr-11 11:28S 34°56' E 019°22'1818.3
2014-Apr-11 10:28S 35°04' E 019°41'1818.7
2014-Apr-11 09:29S 35°02' E 020°03'24118.5
2014-Apr-10 20:27S 34°25' E 024°53'8917.1
2014-Apr-10 15:14S 34°09' E 026°39'1715.8
2014-Apr-10 14:10S 33°59' E 026°56'5218.5
2014-Apr-10 11:22S 33°31' E 027°48'10319.4
2014-Apr-10 06:04S 32°20' E 029°17'16018.5
2014-Apr-09 21:28S 30°10' E 031°05'1617.7
2014-Apr-09 20:33S 29°55' E 031°11'8 8.1
2014-Apr-09 19:32S 29°52' E 031°02'0 0.3
2014-Apr-09 18:23S 29°53' E 031°02'0 0.0
2014-Apr-09 17:29S 29°53' E 031°02'0 0.0
2014-Apr-09 16:29S 29°53' E 031°02'0 0.0
2014-Apr-09 15:29S 29°53' E 031°02'0 0.0
2014-Apr-09 14:17S 29°53' E 031°02'0 0.0
2014-Apr-09 13:29S 29°53' E 031°02'0 0.0
2014-Apr-09 12:29S 29°53' E 031°02'0 0.0
2014-Apr-09 10:23S 29°53' E 031°02'0 0.0
2014-Apr-09 07:11S 29°53' E 031°02'0 0.0
2014-Apr-09 05:29S 29°53' E 031°02'0 0.0
2014-Apr-09 03:23S 29°53' E 031°02'0 0.0
2014-Apr-09 02:29S 29°53' E 031°02'0 0.0
2014-Apr-09 01:29S 29°53' E 031°02'0 0.0
2014-Apr-08 23:17S 29°53' E 031°02'0 0.0
2014-Apr-08 22:29S 29°53' E 031°02'0 0.0
2014-Apr-08 20:23S 29°53' E 031°02'0 0.0
2014-Apr-08 19:29S 29°53' E 031°02'0 0.0
2014-Apr-08 17:17S 29°53' E 031°02'0 0.0
2014-Apr-08 16:17S 29°53' E 031°02'0 0.0
2014-Apr-08 15:29S 29°53' E 031°02'0 0.0
2014-Apr-08 14:05S 29°53' E 031°02'0 0.0
2014-Apr-08 13:23S 29°53' E 031°02'0 0.0
2014-Apr-08 11:23S 29°53' E 031°02'0 0.0
2014-Apr-08 10:17S 29°53' E 031°02'0 0.0
2014-Apr-08 09:29S 29°53' E 031°02'0 0.0
2014-Apr-08 07:11S 29°53' E 031°02'0 0.0
2014-Apr-08 06:23S 29°53' E 031°02'0 0.0
2014-Apr-08 04:29S 29°53' E 031°02'0 0.0
2014-Apr-08 02:17S 29°53' E 031°02'0 0.0
2014-Apr-08 01:23S 29°53' E 031°02'0 0.0
2014-Apr-08 00:17S 29°53' E 031°02'0 0.0
2014-Apr-07 23:29S 29°53' E 031°02'0 0.0
2014-Apr-07 20:17S 29°53' E 031°02'0 0.0
2014-Apr-07 19:11S 29°53' E 031°02'0 0.0
2014-Apr-07 15:23S 29°53' E 031°02'0 0.0
2014-Apr-07 12:25S 29°53' E 031°02'0 0.0
2014-Apr-07 11:06S 29°53' E 031°02'0 0.0
2014-Apr-07 08:24S 29°53' E 031°02'0 0.0
2014-Apr-07 07:30S 29°53' E 031°02'0 0.0
2014-Apr-07 06:24S 29°53' E 031°02'0 0.0
2014-Apr-07 05:19S 29°53' E 031°02'0 0.0
2014-Apr-07 04:07S 29°53' E 031°02'0 0.0
2014-Apr-07 03:31S 29°53' E 031°02'0 0.0
2014-Apr-07 02:24S 29°53' E 031°02'0 0.0
2014-Apr-07 01:25S 29°53' E 031°02'0 0.0
2014-Apr-07 00:24S 29°53' E 031°02'0 0.0
2014-Apr-06 23:30S 29°53' E 031°02'0 0.0
2014-Apr-06 22:31S 29°53' E 031°02'0 0.0
2014-Apr-06 21:31S 29°53' E 031°02'0 0.0
2014-Apr-06 20:24S 29°53' E 031°02'0 0.0
2014-Apr-06 19:30S 29°53' E 031°02'0 0.0
2014-Apr-06 17:30S 29°53' E 031°02'0 0.0
2014-Apr-06 16:31S 29°53' E 031°02'0 0.0
2014-Apr-06 15:24S 29°53' E 031°02'0 0.0
2014-Apr-06 14:30S 29°53' E 031°02'1 0.6
2014-Apr-06 13:34S 29°52' E 031°02'5 5.5
2014-Apr-06 12:34S 29°49' E 031°07'1211.5
2014-Apr-06 11:34S 29°47' E 031°20'4 3.7
2014-Apr-06 10:33S 29°45' E 031°24'1 1.4
2014-Apr-06 09:33S 29°46' E 031°23'3 2.5
2014-Apr-06 08:33S 29°49' E 031°22'2 1.6
2014-Apr-06 07:33S 29°47' E 031°23'2 1.9
2014-Apr-06 06:33S 29°49' E 031°22'5 5.3
2014-Apr-06 05:33S 29°47' E 031°28'9 8.9
2014-Apr-06 04:33S 29°44' E 031°37'9 9.4
2014-Apr-06 03:33S 29°42' E 031°48'  

Dump ship's entire track history

sailing weather and tide predictions

Budapest Bridge — VRIZ5 — position and weather